LIRFLFKS

Guest
Details From LIRF - Roma Fiumicino Leonardo Da Vinci
To LFKS - Solenzara
Flight Number -
Tags generated
Created
Modified
Stats Distance 128 nm / 237 km
Max Altitude 5,700 ft / 1,737 m
Waypoints 3
Social Downloads 0
Likes 0
Share VATSIM

Download

Looking for another format? Having issues loading an existing format? Contact us
Advertisement - Login to hide

Notes

Basic altitude profile: - Ascent Rate: 2500ft/min - Ascent Speed: 250kts - Cruise Altitude: 35000ft - Cruise Speed: 420kts - Descent Rate: 1500ft/min - Descent Speed: 250kts Options: - Use NATs: no - Use PACOTS: no - Use low airways: no - Use high airways: no

Route

LIRF 4200N01000E LFKS

ID Type Via Altitude Latitude Longitude Leg Dist Tot Dist Heading (true) Name
O LIRF APT - 0 ft / 0 m 41.81081˚ 12.25090˚ - 0 nm - Roma Fiumicino Leonardo Da Vinci
4200N01000E LATLON - 5,700 ft / 1,737 m 42.00000˚ 10.00000˚ 101 nm 101 nm 277° / 276° -
O LFKS APT - 0 ft / 0 m 41.92462˚ 9.40532˚ 26 nm 128 nm 261° / 260° Solenzara

Altitude Profile

Advertisement - Login to hide

LIRF

Details ICAO LIRF (FCO)
Name Roma Fiumicino Leonardo Da Vinci
Region Italy
Timezone Europe/Rome (UTC+2.0)
Stats Elevation 15 ft / 5 m (AMSL)
Location 41.810809° 12.250897°
Runways 3
Magnetic Variation 3.042° E

METAR

LIRF 270120Z 00000KT CAVOK 18/16 Q1017 NOSIG

Decode

TAF

TAF LIRF 262300Z 2700/2806 VRB04KT CAVOK TEMPO 2701/2705 2000 BR BECMG 2708/2710 23012KT BECMG 2716/2718 VRB04KT

Decode

Departure Runways

ID Width Length Bearing (true) Bearing (mag) Surface Threshold Offset Overrun Length
07 148 ft / 45 m 10,835 ft / 3,302 m 69.67° 66.63° Asphalt 1,365 ft / 416 m 0 ft / 0 m
16L 197 ft / 60 m 12,832 ft / 3,911 m 162.67° 159.63° Asphalt 0 ft / 0 m 0 ft / 0 m
16R 197 ft / 60 m 12,822 ft / 3,908 m 162.66° 159.62° Asphalt 0 ft / 0 m 0 ft / 0 m
25 148 ft / 45 m 10,835 ft / 3,302 m 249.70° 246.66° Asphalt 0 ft / 0 m 0 ft / 0 m
34L 197 ft / 60 m 12,822 ft / 3,908 m 342.67° 339.63° Asphalt 1,053 ft / 321 m 0 ft / 0 m
34R 197 ft / 60 m 12,832 ft / 3,911 m 342.68° 339.64° Asphalt 0 ft / 0 m 0 ft / 0 m

LFKS

Details ICAO LFKS (SOZ)
Name Solenzara
Region France
Timezone Europe/Paris (UTC+2.0)
Stats Elevation 27 ft / 8 m (AMSL)
Location 41.924616° 9.405323°
Runways 1
Magnetic Variation 2.500° E

METAR

LFKS 270130Z AUTO 27004KT 250V310 CAVOK 19/14 Q1018

Decode

TAF

Not found

Destination Runways

ID Width Length Bearing (true) Bearing (mag) Surface Threshold Offset Overrun Length
18 148 ft / 45 m 8,582 ft / 2,616 m 179.77° 177.27° Concrete 0 ft / 0 m 686 ft / 209 m
36 148 ft / 45 m 8,582 ft / 2,616 m 359.77° 357.27° Concrete 0 ft / 0 m 935 ft / 285 m

Approach Navaids

Runway Type Ident Frequency Range Bearing (true) Bearing (mag) Slope Elevation
18 Localiser SZA 109.10 MHz 27 nm / 50 km 178.95° 176.45° - 27 ft / 8 m (AMSL)
18 Glidescope SZA 109.10 MHz 27 nm / 50 km 178.95° 176.45° 2.50° 27 ft / 8 m (AMSL)

Popular Alternatives